sensor_id;sensor_type;location;lat;lon;timestamp;P1;durP1;ratioP1;P2;durP2;ratioP2
53533;SDS011;39421;53.204;6.568;2022-09-13T00:01:27;20.48;;;13.90;;
53533;SDS011;39421;53.204;6.568;2022-09-13T00:03:53;18.45;;;13.20;;
53533;SDS011;39421;53.204;6.568;2022-09-13T00:06:19;19.25;;;13.23;;
53533;SDS011;39421;53.204;6.568;2022-09-13T00:08:46;17.15;;;12.88;;
53533;SDS011;39421;53.204;6.568;2022-09-13T00:11:20;19.25;;;13.75;;
53533;SDS011;39421;53.204;6.568;2022-09-13T00:13:47;19.92;;;12.85;;
53533;SDS011;39421;53.204;6.568;2022-09-13T00:16:14;17.80;;;12.95;;
53533;SDS011;39421;53.204;6.568;2022-09-13T00:18:41;17.95;;;13.35;;
53533;SDS011;39421;53.204;6.568;2022-09-13T00:21:08;17.23;;;13.63;;
53533;SDS011;39421;53.204;6.568;2022-09-13T00:23:39;19.20;;;13.90;;
53533;SDS011;39421;53.204;6.568;2022-09-13T00:26:08;17.48;;;12.82;;
53533;SDS011;39421;53.204;6.568;2022-09-13T00:28:36;17.73;;;13.33;;
53533;SDS011;39421;53.204;6.568;2022-09-13T00:31:03;18.70;;;13.63;;
53533;SDS011;39421;53.204;6.568;2022-09-13T00:33:30;17.30;;;13.13;;
53533;SDS011;39421;53.204;6.568;2022-09-13T00:35:57;19.73;;;14.18;;
53533;SDS011;39421;53.204;6.568;2022-09-13T00:38:23;19.75;;;14.13;;
53533;SDS011;39421;53.204;6.568;2022-09-13T00:40:49;18.83;;;14.10;;
53533;SDS011;39421;53.204;6.568;2022-09-13T00:43:16;20.50;;;14.30;;
53533;SDS011;39421;53.204;6.568;2022-09-13T00:45:45;19.73;;;14.05;;
53533;SDS011;39421;53.204;6.568;2022-09-13T00:48:17;19.08;;;13.32;;
53533;SDS011;39421;53.204;6.568;2022-09-13T00:50:49;17.20;;;13.10;;
53533;SDS011;39421;53.204;6.568;2022-09-13T00:55:55;20.88;;;14.02;;
53533;SDS011;39421;53.204;6.568;2022-09-13T00:58:32;19.25;;;14.27;;
53533;SDS011;39421;53.204;6.568;2022-09-13T01:01:06;22.15;;;16.48;;
53533;SDS011;39421;53.204;6.568;2022-09-13T01:03:35;24.13;;;17.02;;
53533;SDS011;39421;53.204;6.568;2022-09-13T01:06:09;25.35;;;18.13;;
53533;SDS011;39421;53.204;6.568;2022-09-13T01:08:45;25.95;;;18.45;;
53533;SDS011;39421;53.204;6.568;2022-09-13T01:11:25;22.40;;;17.25;;
53533;SDS011;39421;53.204;6.568;2022-09-13T01:14:02;24.58;;;17.50;;
53533;SDS011;39421;53.204;6.568;2022-09-13T01:16:28;23.05;;;16.25;;
53533;SDS011;39421;53.204;6.568;2022-09-13T01:18:54;21.92;;;15.18;;
53533;SDS011;39421;53.204;6.568;2022-09-13T01:41:10;15.32;;;11.50;;
53533;SDS011;39421;53.204;6.568;2022-09-13T01:49:20;14.88;;;9.95;;
53533;SDS011;39421;53.204;6.568;2022-09-13T01:51:58;13.18;;;9.30;;
53533;SDS011;39421;53.204;6.568;2022-09-13T01:54:47;11.35;;;9.05;;
53533;SDS011;39421;53.204;6.568;2022-09-13T01:57:31;11.43;;;8.88;;
53533;SDS011;39421;53.204;6.568;2022-09-13T02:00:04;12.63;;;9.45;;
53533;SDS011;39421;53.204;6.568;2022-09-13T02:05:36;12.90;;;9.13;;
53533;SDS011;39421;53.204;6.568;2022-09-13T02:08:53;14.02;;;9.40;;
53533;SDS011;39421;53.204;6.568;2022-09-13T02:11:11;11.82;;;8.50;;
53533;SDS011;39421;53.204;6.568;2022-09-13T02:13:40;11.25;;;8.45;;
53533;SDS011;39421;53.204;6.568;2022-09-13T02:16:14;11.30;;;8.43;;
53533;SDS011;39421;53.204;6.568;2022-09-13T02:18:57;12.25;;;8.57;;
53533;SDS011;39421;53.204;6.568;2022-09-13T02:21:28;11.75;;;8.15;;
53533;SDS011;39421;53.204;6.568;2022-09-13T02:24:01;11.60;;;8.30;;
53533;SDS011;39421;53.204;6.568;2022-09-13T02:26:31;11.77;;;8.77;;
53533;SDS011;39421;53.204;6.568;2022-09-13T02:29:02;11.40;;;8.50;;
53533;SDS011;39421;53.204;6.568;2022-09-13T02:31:57;11.93;;;8.45;;
53533;SDS011;39421;53.204;6.568;2022-09-13T02:34:51;11.25;;;8.65;;
53533;SDS011;39421;53.204;6.568;2022-09-13T02:37:20;11.95;;;8.55;;
53533;SDS011;39421;53.204;6.568;2022-09-13T02:39:50;12.60;;;8.57;;
53533;SDS011;39421;53.204;6.568;2022-09-13T02:42:28;11.43;;;8.52;;
53533;SDS011;39421;53.204;6.568;2022-09-13T02:45:00;12.38;;;9.00;;
53533;SDS011;39421;53.204;6.568;2022-09-13T02:47:30;10.68;;;8.55;;
53533;SDS011;39421;53.204;6.568;2022-09-13T02:52:46;13.10;;;9.10;;
53533;SDS011;39421;53.204;6.568;2022-09-13T02:55:21;11.80;;;8.27;;
53533;SDS011;39421;53.204;6.568;2022-09-13T03:00:44;13.15;;;8.55;;
53533;SDS011;39421;53.204;6.568;2022-09-13T03:03:11;13.35;;;8.95;;
53533;SDS011;39421;53.204;6.568;2022-09-13T03:05:39;10.80;;;8.68;;
53533;SDS011;39421;53.204;6.568;2022-09-13T03:08:06;12.27;;;8.73;;
53533;SDS011;39421;53.204;6.568;2022-09-13T03:16:09;8.75;;;6.53;;
53533;SDS011;39421;53.204;6.568;2022-09-13T03:30:48;3.33;;;2.33;;
53533;SDS011;39421;53.204;6.568;2022-09-13T03:36:11;2.37;;;1.53;;
53533;SDS011;39421;53.204;6.568;2022-09-13T03:41:38;2.42;;;1.38;;
53533;SDS011;39421;53.204;6.568;2022-09-13T03:44:09;2.30;;;1.33;;
53533;SDS011;39421;53.204;6.568;2022-09-13T03:46:42;2.17;;;1.30;;
53533;SDS011;39421;53.204;6.568;2022-09-13T03:49:15;3.00;;;1.90;;
53533;SDS011;39421;53.204;6.568;2022-09-13T03:51:43;3.65;;;2.40;;
53533;SDS011;39421;53.204;6.568;2022-09-13T03:54:35;5.18;;;2.72;;
53533;SDS011;39421;53.204;6.568;2022-09-13T03:57:07;3.67;;;2.40;;
53533;SDS011;39421;53.204;6.568;2022-09-13T03:59:38;3.00;;;2.30;;
53533;SDS011;39421;53.204;6.568;2022-09-13T04:02:09;3.90;;;2.20;;
53533;SDS011;39421;53.204;6.568;2022-09-13T04:04:36;3.60;;;1.80;;
53533;SDS011;39421;53.204;6.568;2022-09-13T04:07:03;3.40;;;1.93;;
53533;SDS011;39421;53.204;6.568;2022-09-13T04:09:32;2.97;;;1.90;;
53533;SDS011;39421;53.204;6.568;2022-09-13T04:11:57;2.42;;;1.80;;
53533;SDS011;39421;53.204;6.568;2022-09-13T04:14:23;2.80;;;2.00;;
53533;SDS011;39421;53.204;6.568;2022-09-13T04:16:54;2.60;;;1.60;;
53533;SDS011;39421;53.204;6.568;2022-09-13T04:19:21;2.72;;;1.52;;
53533;SDS011;39421;53.204;6.568;2022-09-13T04:21:48;2.72;;;1.50;;
53533;SDS011;39421;53.204;6.568;2022-09-13T04:24:15;3.20;;;1.50;;
53533;SDS011;39421;53.204;6.568;2022-09-13T04:26:41;3.17;;;1.30;;
53533;SDS011;39421;53.204;6.568;2022-09-13T04:29:07;3.63;;;1.40;;
53533;SDS011;39421;53.204;6.568;2022-09-13T04:31:33;2.47;;;1.50;;
53533;SDS011;39421;53.204;6.568;2022-09-13T04:33:59;3.15;;;1.50;;
53533;SDS011;39421;53.204;6.568;2022-09-13T04:36:24;2.83;;;1.70;;
53533;SDS011;39421;53.204;6.568;2022-09-13T04:38:50;3.08;;;1.80;;
53533;SDS011;39421;53.204;6.568;2022-09-13T04:41:16;2.90;;;1.60;;
53533;SDS011;39421;53.204;6.568;2022-09-13T04:43:42;2.60;;;1.50;;
53533;SDS011;39421;53.204;6.568;2022-09-13T04:46:08;3.05;;;1.50;;
53533;SDS011;39421;53.204;6.568;2022-09-13T04:48:33;3.17;;;1.37;;
53533;SDS011;39421;53.204;6.568;2022-09-13T04:51:00;2.53;;;1.55;;
53533;SDS011;39421;53.204;6.568;2022-09-13T04:53:29;3.90;;;1.80;;
53533;SDS011;39421;53.204;6.568;2022-09-13T04:56:02;2.70;;;1.63;;
53533;SDS011;39421;53.204;6.568;2022-09-13T04:58:29;4.15;;;1.85;;
53533;SDS011;39421;53.204;6.568;2022-09-13T05:01:02;3.25;;;1.40;;
53533;SDS011;39421;53.204;6.568;2022-09-13T05:03:29;3.28;;;1.48;;
53533;SDS011;39421;53.204;6.568;2022-09-13T05:06:00;4.60;;;1.55;;
53533;SDS011;39421;53.204;6.568;2022-09-13T05:08:29;3.30;;;1.50;;
53533;SDS011;39421;53.204;6.568;2022-09-13T05:10:55;2.03;;;1.30;;
53533;SDS011;39421;53.204;6.568;2022-09-13T05:13:21;1.80;;;1.13;;
53533;SDS011;39421;53.204;6.568;2022-09-13T05:15:47;3.25;;;1.45;;
53533;SDS011;39421;53.204;6.568;2022-09-13T05:18:12;2.50;;;1.33;;
53533;SDS011;39421;53.204;6.568;2022-09-13T05:20:38;2.38;;;1.35;;
53533;SDS011;39421;53.204;6.568;2022-09-13T05:23:04;3.50;;;1.40;;
53533;SDS011;39421;53.204;6.568;2022-09-13T05:25:29;2.33;;;1.63;;
53533;SDS011;39421;53.204;6.568;2022-09-13T05:27:55;2.40;;;1.63;;
53533;SDS011;39421;53.204;6.568;2022-09-13T05:30:21;5.47;;;2.22;;
53533;SDS011;39421;53.204;6.568;2022-09-13T05:32:46;4.47;;;2.20;;
53533;SDS011;39421;53.204;6.568;2022-09-13T05:35:12;3.60;;;1.90;;
53533;SDS011;39421;53.204;6.568;2022-09-13T05:37:38;3.60;;;2.00;;
53533;SDS011;39421;53.204;6.568;2022-09-13T05:40:04;3.25;;;1.90;;
53533;SDS011;39421;53.204;6.568;2022-09-13T05:42:30;4.23;;;2.00;;
53533;SDS011;39421;53.204;6.568;2022-09-13T05:44:55;4.53;;;2.00;;
53533;SDS011;39421;53.204;6.568;2022-09-13T05:47:22;4.47;;;1.80;;
53533;SDS011;39421;53.204;6.568;2022-09-13T05:49:48;4.05;;;1.95;;
53533;SDS011;39421;53.204;6.568;2022-09-13T05:52:13;3.77;;;1.80;;
53533;SDS011;39421;53.204;6.568;2022-09-13T05:54:39;2.83;;;1.67;;
53533;SDS011;39421;53.204;6.568;2022-09-13T05:57:04;4.97;;;1.90;;
53533;SDS011;39421;53.204;6.568;2022-09-13T05:59:30;3.83;;;1.65;;
53533;SDS011;39421;53.204;6.568;2022-09-13T06:01:56;6.78;;;1.80;;
53533;SDS011;39421;53.204;6.568;2022-09-13T06:04:22;3.10;;;1.70;;
53533;SDS011;39421;53.204;6.568;2022-09-13T06:06:48;5.03;;;1.80;;
53533;SDS011;39421;53.204;6.568;2022-09-13T06:09:14;4.43;;;1.90;;
53533;SDS011;39421;53.204;6.568;2022-09-13T06:11:40;3.45;;;1.60;;
53533;SDS011;39421;53.204;6.568;2022-09-13T06:14:06;5.95;;;1.73;;
53533;SDS011;39421;53.204;6.568;2022-09-13T06:16:31;3.83;;;1.77;;
53533;SDS011;39421;53.204;6.568;2022-09-13T06:18:57;3.08;;;1.75;;
53533;SDS011;39421;53.204;6.568;2022-09-13T06:21:23;4.38;;;2.00;;
53533;SDS011;39421;53.204;6.568;2022-09-13T06:23:50;4.50;;;1.83;;
53533;SDS011;39421;53.204;6.568;2022-09-13T06:26:18;4.50;;;1.70;;
53533;SDS011;39421;53.204;6.568;2022-09-13T06:28:46;4.35;;;1.88;;
53533;SDS011;39421;53.204;6.568;2022-09-13T06:31:13;5.05;;;1.83;;
53533;SDS011;39421;53.204;6.568;2022-09-13T06:33:41;3.30;;;1.80;;
53533;SDS011;39421;53.204;6.568;2022-09-13T06:36:11;4.97;;;2.00;;
53533;SDS011;39421;53.204;6.568;2022-09-13T06:38:39;4.90;;;2.55;;
53533;SDS011;39421;53.204;6.568;2022-09-13T06:41:06;5.13;;;2.20;;
53533;SDS011;39421;53.204;6.568;2022-09-13T06:43:32;4.28;;;2.40;;
53533;SDS011;39421;53.204;6.568;2022-09-13T06:45:59;6.53;;;2.83;;
53533;SDS011;39421;53.204;6.568;2022-09-13T06:48:34;6.72;;;2.80;;
53533;SDS011;39421;53.204;6.568;2022-09-13T06:51:07;4.95;;;2.92;;
53533;SDS011;39421;53.204;6.568;2022-09-13T06:53:36;5.38;;;2.70;;
53533;SDS011;39421;53.204;6.568;2022-09-13T06:58:31;4.68;;;2.20;;
53533;SDS011;39421;53.204;6.568;2022-09-13T07:04:03;3.88;;;2.25;;
53533;SDS011;39421;53.204;6.568;2022-09-13T07:06:31;6.20;;;2.20;;
53533;SDS011;39421;53.204;6.568;2022-09-13T07:09:03;3.67;;;2.10;;
53533;SDS011;39421;53.204;6.568;2022-09-13T07:11:31;3.10;;;2.10;;
53533;SDS011;39421;53.204;6.568;2022-09-13T07:13:59;4.53;;;2.25;;
53533;SDS011;39421;53.204;6.568;2022-09-13T07:16:26;4.20;;;2.38;;
53533;SDS011;39421;53.204;6.568;2022-09-13T07:18:55;5.45;;;1.95;;
53533;SDS011;39421;53.204;6.568;2022-09-13T07:21:26;3.42;;;2.10;;
53533;SDS011;39421;53.204;6.568;2022-09-13T07:23:52;3.00;;;1.80;;
53533;SDS011;39421;53.204;6.568;2022-09-13T07:26:19;3.35;;;1.50;;
53533;SDS011;39421;53.204;6.568;2022-09-13T07:28:46;3.97;;;1.42;;
53533;SDS011;39421;53.204;6.568;2022-09-13T07:33:44;3.40;;;1.30;;
53533;SDS011;39421;53.204;6.568;2022-09-13T07:36:11;4.60;;;1.42;;
53533;SDS011;39421;53.204;6.568;2022-09-13T07:38:39;4.88;;;1.38;;
53533;SDS011;39421;53.204;6.568;2022-09-13T07:41:07;5.93;;;1.45;;
53533;SDS011;39421;53.204;6.568;2022-09-13T07:43:36;4.60;;;1.33;;
53533;SDS011;39421;53.204;6.568;2022-09-13T07:46:09;3.87;;;1.30;;
53533;SDS011;39421;53.204;6.568;2022-09-13T07:48:37;3.25;;;1.25;;
53533;SDS011;39421;53.204;6.568;2022-09-13T07:51:11;3.30;;;1.30;;
53533;SDS011;39421;53.204;6.568;2022-09-13T07:53:42;2.97;;;1.05;;
53533;SDS011;39421;53.204;6.568;2022-09-13T07:56:13;3.28;;;1.40;;
53533;SDS011;39421;53.204;6.568;2022-09-13T07:58:48;4.27;;;1.10;;
53533;SDS011;39421;53.204;6.568;2022-09-13T08:01:15;4.55;;;1.40;;
53533;SDS011;39421;53.204;6.568;2022-09-13T08:04:00;3.83;;;1.13;;
53533;SDS011;39421;53.204;6.568;2022-09-13T08:06:28;3.13;;;1.17;;
53533;SDS011;39421;53.204;6.568;2022-09-13T08:08:56;2.67;;;1.20;;
53533;SDS011;39421;53.204;6.568;2022-09-13T08:11:24;2.92;;;1.20;;
53533;SDS011;39421;53.204;6.568;2022-09-13T08:13:52;4.33;;;1.20;;
53533;SDS011;39421;53.204;6.568;2022-09-13T08:16:19;4.67;;;1.40;;
53533;SDS011;39421;53.204;6.568;2022-09-13T08:18:48;4.25;;;1.25;;
53533;SDS011;39421;53.204;6.568;2022-09-13T08:21:15;4.10;;;1.40;;
53533;SDS011;39421;53.204;6.568;2022-09-13T08:23:42;3.28;;;0.90;;
53533;SDS011;39421;53.204;6.568;2022-09-13T08:26:08;5.70;;;1.50;;
53533;SDS011;39421;53.204;6.568;2022-09-13T08:28:35;3.25;;;1.13;;
53533;SDS011;39421;53.204;6.568;2022-09-13T08:31:09;3.35;;;1.20;;
53533;SDS011;39421;53.204;6.568;2022-09-13T08:33:37;5.18;;;1.58;;
53533;SDS011;39421;53.204;6.568;2022-09-13T08:36:04;5.57;;;1.30;;
53533;SDS011;39421;53.204;6.568;2022-09-13T08:38:30;2.38;;;0.93;;
53533;SDS011;39421;53.204;6.568;2022-09-13T08:40:57;4.63;;;1.63;;
53533;SDS011;39421;53.204;6.568;2022-09-13T08:43:34;3.25;;;1.30;;
53533;SDS011;39421;53.204;6.568;2022-09-13T08:46:20;5.93;;;1.30;;
53533;SDS011;39421;53.204;6.568;2022-09-13T08:48:51;4.60;;;1.20;;
53533;SDS011;39421;53.204;6.568;2022-09-13T08:53:55;4.32;;;1.60;;
53533;SDS011;39421;53.204;6.568;2022-09-13T08:56:22;4.30;;;1.33;;
53533;SDS011;39421;53.204;6.568;2022-09-13T09:07:58;3.10;;;1.20;;
53533;SDS011;39421;53.204;6.568;2022-09-13T09:10:41;5.43;;;1.13;;
53533;SDS011;39421;53.204;6.568;2022-09-13T09:13:26;3.97;;;1.17;;
53533;SDS011;39421;53.204;6.568;2022-09-13T09:16:00;2.65;;;1.23;;
53533;SDS011;39421;53.204;6.568;2022-09-13T09:18:32;3.53;;;1.20;;
53533;SDS011;39421;53.204;6.568;2022-09-13T09:21:02;3.97;;;0.90;;
53533;SDS011;39421;53.204;6.568;2022-09-13T09:23:38;8.43;;;1.70;;
53533;SDS011;39421;53.204;6.568;2022-09-13T09:28:49;5.38;;;1.05;;
53533;SDS011;39421;53.204;6.568;2022-09-13T09:37:04;2.65;;;1.27;;
53533;SDS011;39421;53.204;6.568;2022-09-13T09:39:36;3.65;;;1.20;;
53533;SDS011;39421;53.204;6.568;2022-09-13T09:42:06;5.30;;;1.33;;
53533;SDS011;39421;53.204;6.568;2022-09-13T09:44:42;3.50;;;1.23;;
53533;SDS011;39421;53.204;6.568;2022-09-13T09:47:23;2.78;;;1.20;;
53533;SDS011;39421;53.204;6.568;2022-09-13T09:49:57;3.47;;;1.00;;
53533;SDS011;39421;53.204;6.568;2022-09-13T09:55:17;4.43;;;1.00;;
53533;SDS011;39421;53.204;6.568;2022-09-13T09:58:06;3.00;;;1.13;;
53533;SDS011;39421;53.204;6.568;2022-09-13T10:00:34;17.20;;;2.63;;
53533;SDS011;39421;53.204;6.568;2022-09-13T10:03:03;3.38;;;1.00;;
53533;SDS011;39421;53.204;6.568;2022-09-13T10:05:31;4.32;;;1.15;;
53533;SDS011;39421;53.204;6.568;2022-09-13T10:08:03;4.03;;;1.20;;
53533;SDS011;39421;53.204;6.568;2022-09-13T10:10:43;6.95;;;1.40;;
53533;SDS011;39421;53.204;6.568;2022-09-13T10:13:18;3.03;;;1.10;;
53533;SDS011;39421;53.204;6.568;2022-09-13T10:18:22;5.15;;;1.50;;
53533;SDS011;39421;53.204;6.568;2022-09-13T10:23:30;5.07;;;1.35;;
53533;SDS011;39421;53.204;6.568;2022-09-13T10:26:09;2.65;;;1.00;;
53533;SDS011;39421;53.204;6.568;2022-09-13T10:29:05;5.65;;;1.42;;
53533;SDS011;39421;53.204;6.568;2022-09-13T10:31:40;3.05;;;1.10;;
53533;SDS011;39421;53.204;6.568;2022-09-13T10:34:19;3.08;;;1.15;;
53533;SDS011;39421;53.204;6.568;2022-09-13T10:39:24;4.70;;;1.27;;
53533;SDS011;39421;53.204;6.568;2022-09-13T10:44:42;4.53;;;1.30;;
53533;SDS011;39421;53.204;6.568;2022-09-13T10:49:58;3.03;;;1.10;;
53533;SDS011;39421;53.204;6.568;2022-09-13T10:52:47;2.33;;;0.97;;
53533;SDS011;39421;53.204;6.568;2022-09-13T10:57:46;6.13;;;1.40;;
53533;SDS011;39421;53.204;6.568;2022-09-13T11:00:15;6.15;;;1.30;;
53533;SDS011;39421;53.204;6.568;2022-09-13T11:09:07;4.40;;;1.23;;
53533;SDS011;39421;53.204;6.568;2022-09-13T11:27:57;3.03;;;1.20;;
53533;SDS011;39421;53.204;6.568;2022-09-13T11:30:57;6.75;;;1.33;;
53533;SDS011;39421;53.204;6.568;2022-09-13T11:36:36;7.10;;;1.27;;
53533;SDS011;39421;53.204;6.568;2022-09-13T11:47:32;5.70;;;1.27;;
53533;SDS011;39421;53.204;6.568;2022-09-13T11:50:27;16.08;;;2.67;;
53533;SDS011;39421;53.204;6.568;2022-09-13T11:56:28;10.13;;;2.20;;
53533;SDS011;39421;53.204;6.568;2022-09-13T12:02:00;9.00;;;2.15;;
53533;SDS011;39421;53.204;6.568;2022-09-13T12:04:44;5.18;;;1.48;;
53533;SDS011;39421;53.204;6.568;2022-09-13T12:08:05;17.60;;;2.90;;
53533;SDS011;39421;53.204;6.568;2022-09-13T12:10:28;8.95;;;1.70;;
53533;SDS011;39421;53.204;6.568;2022-09-13T12:13:15;6.28;;;1.38;;
53533;SDS011;39421;53.204;6.568;2022-09-13T12:15:46;8.68;;;1.95;;
53533;SDS011;39421;53.204;6.568;2022-09-13T12:20:53;7.18;;;1.60;;
53533;SDS011;39421;53.204;6.568;2022-09-13T12:23:32;8.98;;;1.60;;
53533;SDS011;39421;53.204;6.568;2022-09-13T12:26:08;8.38;;;1.67;;
53533;SDS011;39421;53.204;6.568;2022-09-13T12:28:41;4.07;;;1.30;;
53533;SDS011;39421;53.204;6.568;2022-09-13T12:31:17;3.87;;;1.30;;
53533;SDS011;39421;53.204;6.568;2022-09-13T12:33:46;5.57;;;1.50;;
53533;SDS011;39421;53.204;6.568;2022-09-13T12:48:02;6.25;;;1.33;;
53533;SDS011;39421;53.204;6.568;2022-09-13T12:59:10;2.92;;;1.40;;
53533;SDS011;39421;53.204;6.568;2022-09-13T13:01:49;4.63;;;1.23;;
53533;SDS011;39421;53.204;6.568;2022-09-13T13:12:00;4.55;;;1.45;;
53533;SDS011;39421;53.204;6.568;2022-09-13T13:14:48;4.40;;;1.42;;
53533;SDS011;39421;53.204;6.568;2022-09-13T13:17:34;3.88;;;1.35;;
53533;SDS011;39421;53.204;6.568;2022-09-13T13:20:37;3.72;;;1.25;;
53533;SDS011;39421;53.204;6.568;2022-09-13T13:29:15;3.83;;;1.53;;
53533;SDS011;39421;53.204;6.568;2022-09-13T13:41:55;3.87;;;1.20;;
53533;SDS011;39421;53.204;6.568;2022-09-13T14:19:49;7.50;;;1.50;;
53533;SDS011;39421;53.204;6.568;2022-09-13T14:22:22;3.85;;;1.30;;
53533;SDS011;39421;53.204;6.568;2022-09-13T14:27:28;5.63;;;1.30;;
53533;SDS011;39421;53.204;6.568;2022-09-13T14:30:02;4.20;;;1.30;;
53533;SDS011;39421;53.204;6.568;2022-09-13T14:32:53;3.35;;;1.17;;
53533;SDS011;39421;53.204;6.568;2022-09-13T14:35:30;4.00;;;1.23;;
53533;SDS011;39421;53.204;6.568;2022-09-13T14:40:50;3.38;;;1.10;;
53533;SDS011;39421;53.204;6.568;2022-09-13T14:43:22;4.50;;;1.35;;
53533;SDS011;39421;53.204;6.568;2022-09-13T14:45:54;9.40;;;1.47;;
53533;SDS011;39421;53.204;6.568;2022-09-13T14:51:04;3.87;;;1.20;;
53533;SDS011;39421;53.204;6.568;2022-09-13T14:53:38;20.88;;;3.33;;
53533;SDS011;39421;53.204;6.568;2022-09-13T14:56:07;3.50;;;1.20;;
53533;SDS011;39421;53.204;6.568;2022-09-13T14:58:43;3.08;;;1.10;;
53533;SDS011;39421;53.204;6.568;2022-09-13T15:01:13;3.33;;;1.30;;
53533;SDS011;39421;53.204;6.568;2022-09-13T15:03:45;3.63;;;1.27;;
53533;SDS011;39421;53.204;6.568;2022-09-13T15:06:26;3.55;;;1.17;;
53533;SDS011;39421;53.204;6.568;2022-09-13T15:08:59;5.03;;;1.40;;
53533;SDS011;39421;53.204;6.568;2022-09-13T15:11:41;2.60;;;1.10;;
53533;SDS011;39421;53.204;6.568;2022-09-13T15:14:22;2.78;;;0.98;;
53533;SDS011;39421;53.204;6.568;2022-09-13T15:16:53;5.07;;;1.23;;
53533;SDS011;39421;53.204;6.568;2022-09-13T15:22:12;6.05;;;1.42;;
53533;SDS011;39421;53.204;6.568;2022-09-13T15:24:52;2.80;;;1.10;;
53533;SDS011;39421;53.204;6.568;2022-09-13T15:29:51;4.38;;;1.20;;
53533;SDS011;39421;53.204;6.568;2022-09-13T15:32:21;2.37;;;1.00;;
53533;SDS011;39421;53.204;6.568;2022-09-13T15:34:54;3.92;;;1.17;;
53533;SDS011;39421;53.204;6.568;2022-09-13T15:37:33;3.33;;;1.00;;
53533;SDS011;39421;53.204;6.568;2022-09-13T15:40:12;4.57;;;1.27;;
53533;SDS011;39421;53.204;6.568;2022-09-13T15:42:38;4.47;;;1.30;;
53533;SDS011;39421;53.204;6.568;2022-09-13T15:45:04;3.23;;;1.10;;
53533;SDS011;39421;53.204;6.568;2022-09-13T15:47:31;2.40;;;1.00;;
53533;SDS011;39421;53.204;6.568;2022-09-13T15:49:56;3.40;;;0.98;;
53533;SDS011;39421;53.204;6.568;2022-09-13T15:52:23;5.88;;;1.35;;
53533;SDS011;39421;53.204;6.568;2022-09-13T15:54:49;5.03;;;1.30;;
53533;SDS011;39421;53.204;6.568;2022-09-13T15:57:16;3.35;;;0.98;;
53533;SDS011;39421;53.204;6.568;2022-09-13T15:59:45;3.50;;;1.10;;
53533;SDS011;39421;53.204;6.568;2022-09-13T16:02:18;7.25;;;1.48;;
53533;SDS011;39421;53.204;6.568;2022-09-13T16:04:49;2.80;;;1.07;;
53533;SDS011;39421;53.204;6.568;2022-09-13T16:07:16;2.72;;;0.90;;
53533;SDS011;39421;53.204;6.568;2022-09-13T16:09:42;3.45;;;1.00;;
53533;SDS011;39421;53.204;6.568;2022-09-13T16:12:09;3.25;;;1.00;;
53533;SDS011;39421;53.204;6.568;2022-09-13T16:14:35;3.53;;;1.10;;
53533;SDS011;39421;53.204;6.568;2022-09-13T16:17:02;3.67;;;1.00;;
53533;SDS011;39421;53.204;6.568;2022-09-13T16:19:31;8.88;;;1.85;;
53533;SDS011;39421;53.204;6.568;2022-09-13T16:21:56;4.18;;;1.30;;
53533;SDS011;39421;53.204;6.568;2022-09-13T16:24:22;4.25;;;1.10;;
53533;SDS011;39421;53.204;6.568;2022-09-13T16:26:48;3.77;;;1.00;;
53533;SDS011;39421;53.204;6.568;2022-09-13T16:29:13;1.90;;;1.03;;
53533;SDS011;39421;53.204;6.568;2022-09-13T16:31:40;3.22;;;1.13;;
53533;SDS011;39421;53.204;6.568;2022-09-13T16:34:06;7.22;;;1.55;;
53533;SDS011;39421;53.204;6.568;2022-09-13T16:36:33;3.17;;;1.08;;
53533;SDS011;39421;53.204;6.568;2022-09-13T16:38:59;2.38;;;0.90;;
53533;SDS011;39421;53.204;6.568;2022-09-13T16:41:25;3.97;;;1.13;;
53533;SDS011;39421;53.204;6.568;2022-09-13T16:43:50;3.60;;;1.20;;
53533;SDS011;39421;53.204;6.568;2022-09-13T16:46:18;3.70;;;1.10;;
53533;SDS011;39421;53.204;6.568;2022-09-13T16:48:44;4.60;;;1.20;;
53533;SDS011;39421;53.204;6.568;2022-09-13T16:51:18;3.55;;;1.10;;
53533;SDS011;39421;53.204;6.568;2022-09-13T16:53:44;3.15;;;1.25;;
53533;SDS011;39421;53.204;6.568;2022-09-13T16:56:13;3.53;;;1.55;;
53533;SDS011;39421;53.204;6.568;2022-09-13T16:58:41;2.47;;;1.00;;
53533;SDS011;39421;53.204;6.568;2022-09-13T17:01:10;10.40;;;1.77;;
53533;SDS011;39421;53.204;6.568;2022-09-13T17:03:38;4.60;;;1.10;;
53533;SDS011;39421;53.204;6.568;2022-09-13T17:06:06;3.25;;;1.17;;
53533;SDS011;39421;53.204;6.568;2022-09-13T17:08:34;4.78;;;1.10;;
53533;SDS011;39421;53.204;6.568;2022-09-13T17:11:09;2.85;;;1.10;;
53533;SDS011;39421;53.204;6.568;2022-09-13T17:13:36;10.27;;;1.85;;
53533;SDS011;39421;53.204;6.568;2022-09-13T17:16:03;3.55;;;1.08;;
53533;SDS011;39421;53.204;6.568;2022-09-13T17:18:30;6.25;;;1.33;;
53533;SDS011;39421;53.204;6.568;2022-09-13T17:20:57;2.78;;;1.10;;
53533;SDS011;39421;53.204;6.568;2022-09-13T17:23:24;3.97;;;1.15;;
53533;SDS011;39421;53.204;6.568;2022-09-13T17:25:50;3.15;;;0.85;;
53533;SDS011;39421;53.204;6.568;2022-09-13T17:28:16;2.83;;;1.10;;
53533;SDS011;39421;53.204;6.568;2022-09-13T17:30:44;2.30;;;0.93;;
53533;SDS011;39421;53.204;6.568;2022-09-13T17:33:11;3.13;;;1.00;;
53533;SDS011;39421;53.204;6.568;2022-09-13T17:35:37;4.07;;;1.27;;
53533;SDS011;39421;53.204;6.568;2022-09-13T17:38:03;5.10;;;1.10;;
53533;SDS011;39421;53.204;6.568;2022-09-13T17:40:30;5.38;;;0.93;;
53533;SDS011;39421;53.204;6.568;2022-09-13T17:42:57;3.08;;;0.85;;
53533;SDS011;39421;53.204;6.568;2022-09-13T17:45:23;2.75;;;1.10;;
53533;SDS011;39421;53.204;6.568;2022-09-13T17:47:52;2.13;;;1.00;;
53533;SDS011;39421;53.204;6.568;2022-09-13T17:50:19;2.60;;;1.13;;
53533;SDS011;39421;53.204;6.568;2022-09-13T17:52:45;5.50;;;1.50;;
53533;SDS011;39421;53.204;6.568;2022-09-13T17:55:11;2.83;;;1.10;;
53533;SDS011;39421;53.204;6.568;2022-09-13T17:57:37;3.20;;;1.00;;
53533;SDS011;39421;53.204;6.568;2022-09-13T18:00:03;4.82;;;1.40;;
53533;SDS011;39421;53.204;6.568;2022-09-13T18:02:33;5.30;;;1.23;;
53533;SDS011;39421;53.204;6.568;2022-09-13T18:04:58;2.80;;;1.20;;
53533;SDS011;39421;53.204;6.568;2022-09-13T18:07:24;3.37;;;1.30;;
53533;SDS011;39421;53.204;6.568;2022-09-13T18:09:50;3.43;;;1.10;;
53533;SDS011;39421;53.204;6.568;2022-09-13T18:12:15;2.65;;;1.35;;
53533;SDS011;39421;53.204;6.568;2022-09-13T18:14:41;2.70;;;1.10;;
53533;SDS011;39421;53.204;6.568;2022-09-13T18:17:07;4.00;;;1.20;;
53533;SDS011;39421;53.204;6.568;2022-09-13T18:19:37;2.87;;;0.97;;
53533;SDS011;39421;53.204;6.568;2022-09-13T18:22:04;3.15;;;1.02;;
53533;SDS011;39421;53.204;6.568;2022-09-13T18:24:30;2.37;;;1.00;;
53533;SDS011;39421;53.204;6.568;2022-09-13T18:26:57;2.30;;;1.00;;
53533;SDS011;39421;53.204;6.568;2022-09-13T18:29:24;3.22;;;1.00;;
53533;SDS011;39421;53.204;6.568;2022-09-13T18:31:50;1.73;;;0.80;;
53533;SDS011;39421;53.204;6.568;2022-09-13T18:34:16;3.87;;;1.07;;
53533;SDS011;39421;53.204;6.568;2022-09-13T18:36:42;2.90;;;1.00;;
53533;SDS011;39421;53.204;6.568;2022-09-13T18:39:15;3.35;;;1.30;;
53533;SDS011;39421;53.204;6.568;2022-09-13T18:41:43;3.58;;;0.90;;
53533;SDS011;39421;53.204;6.568;2022-09-13T18:44:11;2.35;;;1.10;;
53533;SDS011;39421;53.204;6.568;2022-09-13T18:46:37;1.95;;;0.80;;
53533;SDS011;39421;53.204;6.568;2022-09-13T18:49:04;1.63;;;1.00;;
53533;SDS011;39421;53.204;6.568;2022-09-13T18:51:37;2.60;;;1.23;;
53533;SDS011;39421;53.204;6.568;2022-09-13T18:54:05;2.03;;;0.88;;
53533;SDS011;39421;53.204;6.568;2022-09-13T18:56:33;3.42;;;1.10;;
53533;SDS011;39421;53.204;6.568;2022-09-13T18:59:00;3.53;;;1.30;;
53533;SDS011;39421;53.204;6.568;2022-09-13T19:01:29;15.13;;;2.28;;
53533;SDS011;39421;53.204;6.568;2022-09-13T19:06:31;2.63;;;0.90;;
53533;SDS011;39421;53.204;6.568;2022-09-13T19:09:06;3.38;;;1.00;;